sensor_id;sensor_type;location;lat;lon;timestamp;temperature;humidity
20744;DHT22;56303;52.160;-0.428;2022-09-23T00:01:10;18.10;99.90
20744;DHT22;56303;52.160;-0.428;2022-09-23T00:03:38;18.20;99.90
20744;DHT22;56303;52.160;-0.428;2022-09-23T00:06:10;18.20;99.90
20744;DHT22;56303;52.160;-0.428;2022-09-23T00:08:38;18.20;99.90
20744;DHT22;56303;52.160;-0.428;2022-09-23T00:11:12;18.10;99.90
20744;DHT22;56303;52.160;-0.428;2022-09-23T00:13:40;18.10;99.90
20744;DHT22;56303;52.160;-0.428;2022-09-23T00:16:10;18.00;99.90
20744;DHT22;56303;52.160;-0.428;2022-09-23T00:18:37;18.10;99.90
20744;DHT22;56303;52.160;-0.428;2022-09-23T00:21:09;18.10;99.90
20744;DHT22;56303;52.160;-0.428;2022-09-23T00:23:37;18.20;99.90
20744;DHT22;56303;52.160;-0.428;2022-09-23T00:26:06;18.10;99.90
20744;DHT22;56303;52.160;-0.428;2022-09-23T00:28:33;18.10;99.90
20744;DHT22;56303;52.160;-0.428;2022-09-23T00:31:05;18.10;99.90
20744;DHT22;56303;52.160;-0.428;2022-09-23T00:33:32;16.80;99.90
20744;DHT22;56303;52.160;-0.428;2022-09-23T00:36:00;18.00;99.90
20744;DHT22;56303;52.160;-0.428;2022-09-23T00:38:28;18.00;99.90
20744;DHT22;56303;52.160;-0.428;2022-09-23T00:40:55;17.80;99.90
20744;DHT22;56303;52.160;-0.428;2022-09-23T00:43:42;17.90;99.90
20744;DHT22;56303;52.160;-0.428;2022-09-23T00:46:34;17.80;99.90
20744;DHT22;56303;52.160;-0.428;2022-09-23T00:51:39;17.60;99.90
20744;DHT22;56303;52.160;-0.428;2022-09-23T00:54:09;17.50;99.90
20744;DHT22;56303;52.160;-0.428;2022-09-23T00:56:37;17.50;99.90
20744;DHT22;56303;52.160;-0.428;2022-09-23T00:59:06;17.60;99.90
20744;DHT22;56303;52.160;-0.428;2022-09-23T01:01:33;17.70;99.90
20744;DHT22;56303;52.160;-0.428;2022-09-23T01:04:01;17.80;99.90
20744;DHT22;56303;52.160;-0.428;2022-09-23T01:06:28;17.80;99.90
20744;DHT22;56303;52.160;-0.428;2022-09-23T01:08:55;17.80;99.90
20744;DHT22;56303;52.160;-0.428;2022-09-23T01:11:35;17.80;99.90
20744;DHT22;56303;52.160;-0.428;2022-09-23T01:22:31;17.90;99.90
20744;DHT22;56303;52.160;-0.428;2022-09-23T01:30:40;18.00;99.90
20744;DHT22;56303;52.160;-0.428;2022-09-23T01:39:09;17.80;99.90
20744;DHT22;56303;52.160;-0.428;2022-09-23T01:41:52;17.80;99.90
20744;DHT22;56303;52.160;-0.428;2022-09-23T01:47:03;17.70;99.90
20744;DHT22;56303;52.160;-0.428;2022-09-23T01:49:46;17.70;99.90
20744;DHT22;56303;52.160;-0.428;2022-09-23T01:52:26;17.60;99.90
20744;DHT22;56303;52.160;-0.428;2022-09-23T01:55:05;17.60;99.90
20744;DHT22;56303;52.160;-0.428;2022-09-23T01:57:38;17.50;99.90
20744;DHT22;56303;52.160;-0.428;2022-09-23T02:00:17;17.30;99.90
20744;DHT22;56303;52.160;-0.428;2022-09-23T02:02:52;17.40;99.90
20744;DHT22;56303;52.160;-0.428;2022-09-23T02:05:49;17.30;99.90
20744;DHT22;56303;52.160;-0.428;2022-09-23T02:08:18;17.50;99.90
20744;DHT22;56303;52.160;-0.428;2022-09-23T02:10:52;17.30;99.90
20744;DHT22;56303;52.160;-0.428;2022-09-23T02:15:59;17.20;99.90
20744;DHT22;56303;52.160;-0.428;2022-09-23T02:18:46;17.20;99.90
20744;DHT22;56303;52.160;-0.428;2022-09-23T02:21:16;17.30;99.90
20744;DHT22;56303;52.160;-0.428;2022-09-23T02:23:50;17.30;99.90
20744;DHT22;56303;52.160;-0.428;2022-09-23T02:26:22;17.40;99.90
20744;DHT22;56303;52.160;-0.428;2022-09-23T02:29:00;17.50;99.90
20744;DHT22;56303;52.160;-0.428;2022-09-23T02:31:41;17.50;99.90
20744;DHT22;56303;52.160;-0.428;2022-09-23T02:40:08;17.50;99.90
20744;DHT22;56303;52.160;-0.428;2022-09-23T02:43:13;17.40;99.90
20744;DHT22;56303;52.160;-0.428;2022-09-23T02:45:32;17.60;99.90
20744;DHT22;56303;52.160;-0.428;2022-09-23T02:48:12;17.40;99.90
20744;DHT22;56303;52.160;-0.428;2022-09-23T02:50:40;17.40;99.90
20744;DHT22;56303;52.160;-0.428;2022-09-23T02:53:07;17.50;99.90
20744;DHT22;56303;52.160;-0.428;2022-09-23T02:55:34;17.50;99.90
20744;DHT22;56303;52.160;-0.428;2022-09-23T02:58:02;17.60;99.90
20744;DHT22;56303;52.160;-0.428;2022-09-23T03:00:48;17.50;99.90
20744;DHT22;56303;52.160;-0.428;2022-09-23T03:03:35;17.50;99.90
20744;DHT22;56303;52.160;-0.428;2022-09-23T03:06:20;17.60;99.90
20744;DHT22;56303;52.160;-0.428;2022-09-23T03:09:01;17.60;99.90
20744;DHT22;56303;52.160;-0.428;2022-09-23T03:11:28;17.70;99.90
20744;DHT22;56303;52.160;-0.428;2022-09-23T03:14:36;17.70;99.90
20744;DHT22;56303;52.160;-0.428;2022-09-23T03:17:09;17.50;99.90
20744;DHT22;56303;52.160;-0.428;2022-09-23T03:19:48;17.60;99.90
20744;DHT22;56303;52.160;-0.428;2022-09-23T03:22:28;17.50;99.90
20744;DHT22;56303;52.160;-0.428;2022-09-23T03:25:02;17.50;99.90
20744;DHT22;56303;52.160;-0.428;2022-09-23T03:27:33;17.60;99.90
20744;DHT22;56303;52.160;-0.428;2022-09-23T03:30:02;17.60;99.90
20744;DHT22;56303;52.160;-0.428;2022-09-23T03:32:30;17.50;99.90
20744;DHT22;56303;52.160;-0.428;2022-09-23T03:35:00;17.50;99.90
20744;DHT22;56303;52.160;-0.428;2022-09-23T03:40:19;17.60;99.90
20744;DHT22;56303;52.160;-0.428;2022-09-23T03:42:47;17.40;99.90
20744;DHT22;56303;52.160;-0.428;2022-09-23T03:45:20;17.50;99.90
20744;DHT22;56303;52.160;-0.428;2022-09-23T03:47:48;17.50;99.90
20744;DHT22;56303;52.160;-0.428;2022-09-23T03:50:15;17.50;99.90
20744;DHT22;56303;52.160;-0.428;2022-09-23T03:52:44;17.50;99.90
20744;DHT22;56303;52.160;-0.428;2022-09-23T03:55:12;17.50;99.90
20744;DHT22;56303;52.160;-0.428;2022-09-23T03:57:39;17.50;99.90
20744;DHT22;56303;52.160;-0.428;2022-09-23T04:00:06;17.50;99.90
20744;DHT22;56303;52.160;-0.428;2022-09-23T04:02:33;17.60;99.90
20744;DHT22;56303;52.160;-0.428;2022-09-23T04:05:00;16.40;99.90
20744;DHT22;56303;52.160;-0.428;2022-09-23T04:07:27;17.70;99.90
20744;DHT22;56303;52.160;-0.428;2022-09-23T04:09:54;17.80;99.90
20744;DHT22;56303;52.160;-0.428;2022-09-23T04:12:21;17.80;99.90
20744;DHT22;56303;52.160;-0.428;2022-09-23T04:14:48;17.60;99.90
20744;DHT22;56303;52.160;-0.428;2022-09-23T04:17:15;17.60;99.90
20744;DHT22;56303;52.160;-0.428;2022-09-23T04:19:42;17.60;99.90
20744;DHT22;56303;52.160;-0.428;2022-09-23T04:22:09;17.50;99.90
20744;DHT22;56303;52.160;-0.428;2022-09-23T04:24:35;17.40;99.90
20744;DHT22;56303;52.160;-0.428;2022-09-23T04:27:02;17.30;99.90
20744;DHT22;56303;52.160;-0.428;2022-09-23T04:29:29;17.40;99.90
20744;DHT22;56303;52.160;-0.428;2022-09-23T04:31:56;17.30;99.90
20744;DHT22;56303;52.160;-0.428;2022-09-23T04:34:23;17.40;99.90
20744;DHT22;56303;52.160;-0.428;2022-09-23T04:36:50;17.50;99.90
20744;DHT22;56303;52.160;-0.428;2022-09-23T04:39:17;17.40;99.90
20744;DHT22;56303;52.160;-0.428;2022-09-23T04:41:44;17.30;99.90
20744;DHT22;56303;52.160;-0.428;2022-09-23T04:44:12;17.20;99.90
20744;DHT22;56303;52.160;-0.428;2022-09-23T04:46:40;17.10;99.90
20744;DHT22;56303;52.160;-0.428;2022-09-23T04:49:07;17.30;99.90
20744;DHT22;56303;52.160;-0.428;2022-09-23T04:51:34;17.20;99.90
20744;DHT22;56303;52.160;-0.428;2022-09-23T04:54:01;17.20;99.90
20744;DHT22;56303;52.160;-0.428;2022-09-23T04:56:29;17.30;99.90
20744;DHT22;56303;52.160;-0.428;2022-09-23T04:58:59;17.30;99.90
20744;DHT22;56303;52.160;-0.428;2022-09-23T05:01:29;17.20;99.90
20744;DHT22;56303;52.160;-0.428;2022-09-23T05:03:59;17.20;99.90
20744;DHT22;56303;52.160;-0.428;2022-09-23T05:06:30;17.20;99.90
20744;DHT22;56303;52.160;-0.428;2022-09-23T05:08:57;17.30;99.90
20744;DHT22;56303;52.160;-0.428;2022-09-23T05:11:25;17.50;99.90
20744;DHT22;56303;52.160;-0.428;2022-09-23T05:13:53;17.30;99.90
20744;DHT22;56303;52.160;-0.428;2022-09-23T05:16:21;17.20;99.90
20744;DHT22;56303;52.160;-0.428;2022-09-23T05:18:49;17.30;99.90
20744;DHT22;56303;52.160;-0.428;2022-09-23T05:21:20;17.30;99.90
20744;DHT22;56303;52.160;-0.428;2022-09-23T05:23:52;17.10;99.90
20744;DHT22;56303;52.160;-0.428;2022-09-23T05:26:26;17.20;99.90
20744;DHT22;56303;52.160;-0.428;2022-09-23T05:28:54;17.30;99.90
20744;DHT22;56303;52.160;-0.428;2022-09-23T05:31:23;17.20;99.90
20744;DHT22;56303;52.160;-0.428;2022-09-23T05:33:59;17.30;99.90
20744;DHT22;56303;52.160;-0.428;2022-09-23T05:36:27;18.40;99.90
20744;DHT22;56303;52.160;-0.428;2022-09-23T05:38:54;17.30;99.90
20744;DHT22;56303;52.160;-0.428;2022-09-23T05:41:23;18.80;99.90
20744;DHT22;56303;52.160;-0.428;2022-09-23T05:43:52;17.50;99.90
20744;DHT22;56303;52.160;-0.428;2022-09-23T05:46:22;17.30;99.90
20744;DHT22;56303;52.160;-0.428;2022-09-23T05:48:50;17.30;99.90
20744;DHT22;56303;52.160;-0.428;2022-09-23T05:51:19;17.30;99.90
20744;DHT22;56303;52.160;-0.428;2022-09-23T05:53:47;17.40;99.90
20744;DHT22;56303;52.160;-0.428;2022-09-23T05:56:17;17.30;99.90
20744;DHT22;56303;52.160;-0.428;2022-09-23T05:58:46;17.40;99.90
20744;DHT22;56303;52.160;-0.428;2022-09-23T06:01:15;17.10;99.90
20744;DHT22;56303;52.160;-0.428;2022-09-23T06:03:54;17.00;99.90
20744;DHT22;56303;52.160;-0.428;2022-09-23T06:06:39;17.10;99.90
20744;DHT22;56303;52.160;-0.428;2022-09-23T06:09:10;17.30;99.90
20744;DHT22;56303;52.160;-0.428;2022-09-23T06:11:39;17.50;99.90
20744;DHT22;56303;52.160;-0.428;2022-09-23T06:14:06;17.50;99.90
20744;DHT22;56303;52.160;-0.428;2022-09-23T06:16:35;17.60;99.90
20744;DHT22;56303;52.160;-0.428;2022-09-23T06:19:02;17.40;99.90
20744;DHT22;56303;52.160;-0.428;2022-09-23T06:21:34;17.10;99.90
20744;DHT22;56303;52.160;-0.428;2022-09-23T06:24:01;17.10;99.90
20744;DHT22;56303;52.160;-0.428;2022-09-23T06:26:29;17.30;99.90
20744;DHT22;56303;52.160;-0.428;2022-09-23T06:29:00;17.50;99.90
20744;DHT22;56303;52.160;-0.428;2022-09-23T06:31:29;17.30;99.90
20744;DHT22;56303;52.160;-0.428;2022-09-23T06:33:56;17.30;99.90
20744;DHT22;56303;52.160;-0.428;2022-09-23T06:36:34;17.30;99.90
20744;DHT22;56303;52.160;-0.428;2022-09-23T06:39:10;17.10;99.90
20744;DHT22;56303;52.160;-0.428;2022-09-23T06:41:37;17.00;99.90
20744;DHT22;56303;52.160;-0.428;2022-09-23T06:44:04;16.90;99.90
20744;DHT22;56303;52.160;-0.428;2022-09-23T06:46:31;17.10;99.90
20744;DHT22;56303;52.160;-0.428;2022-09-23T06:48:58;16.90;99.90
20744;DHT22;56303;52.160;-0.428;2022-09-23T06:51:25;16.80;99.90
20744;DHT22;56303;52.160;-0.428;2022-09-23T06:53:52;16.80;99.90
20744;DHT22;56303;52.160;-0.428;2022-09-23T06:56:19;16.90;99.90
20744;DHT22;56303;52.160;-0.428;2022-09-23T06:58:50;17.00;99.90
20744;DHT22;56303;52.160;-0.428;2022-09-23T07:01:18;17.20;99.90
20744;DHT22;56303;52.160;-0.428;2022-09-23T07:03:46;17.20;99.90
20744;DHT22;56303;52.160;-0.428;2022-09-23T07:06:14;17.10;99.90
20744;DHT22;56303;52.160;-0.428;2022-09-23T07:08:44;17.20;99.90
20744;DHT22;56303;52.160;-0.428;2022-09-23T07:11:14;16.80;99.90
20744;DHT22;56303;52.160;-0.428;2022-09-23T07:13:41;16.80;99.90
20744;DHT22;56303;52.160;-0.428;2022-09-23T07:16:09;16.60;99.90
20744;DHT22;56303;52.160;-0.428;2022-09-23T07:18:36;16.60;99.90
20744;DHT22;56303;52.160;-0.428;2022-09-23T07:21:10;16.20;99.90
20744;DHT22;56303;52.160;-0.428;2022-09-23T07:23:41;16.10;99.90
20744;DHT22;56303;52.160;-0.428;2022-09-23T07:26:08;15.90;99.90
20744;DHT22;56303;52.160;-0.428;2022-09-23T07:28:35;16.00;99.90
20744;DHT22;56303;52.160;-0.428;2022-09-23T07:31:06;16.30;99.90
20744;DHT22;56303;52.160;-0.428;2022-09-23T07:33:36;16.40;99.90
20744;DHT22;56303;52.160;-0.428;2022-09-23T07:36:14;16.30;99.90
20744;DHT22;56303;52.160;-0.428;2022-09-23T07:38:45;16.60;99.90
20744;DHT22;56303;52.160;-0.428;2022-09-23T07:41:17;16.90;99.90
20744;DHT22;56303;52.160;-0.428;2022-09-23T07:43:45;16.80;99.90
20744;DHT22;56303;52.160;-0.428;2022-09-23T07:46:15;16.90;99.90
20744;DHT22;56303;52.160;-0.428;2022-09-23T07:48:43;17.00;99.90
20744;DHT22;56303;52.160;-0.428;2022-09-23T07:51:12;17.10;99.90
20744;DHT22;56303;52.160;-0.428;2022-09-23T07:53:39;17.10;99.90
20744;DHT22;56303;52.160;-0.428;2022-09-23T07:56:06;17.20;99.90
20744;DHT22;56303;52.160;-0.428;2022-09-23T07:58:33;17.30;99.90
20744;DHT22;56303;52.160;-0.428;2022-09-23T08:01:05;17.40;99.90
20744;DHT22;56303;52.160;-0.428;2022-09-23T08:03:32;17.20;99.90
20744;DHT22;56303;52.160;-0.428;2022-09-23T08:06:23;17.30;99.90
20744;DHT22;56303;52.160;-0.428;2022-09-23T08:08:50;16.90;99.90
20744;DHT22;56303;52.160;-0.428;2022-09-23T08:11:19;16.90;99.90
20744;DHT22;56303;52.160;-0.428;2022-09-23T08:13:46;17.00;99.90
20744;DHT22;56303;52.160;-0.428;2022-09-23T08:16:13;17.10;99.90
20744;DHT22;56303;52.160;-0.428;2022-09-23T08:18:42;17.50;99.90
20744;DHT22;56303;52.160;-0.428;2022-09-23T08:21:10;17.80;99.90
20744;DHT22;56303;52.160;-0.428;2022-09-23T08:23:37;17.80;99.90
20744;DHT22;56303;52.160;-0.428;2022-09-23T08:26:05;17.70;99.90
20744;DHT22;56303;52.160;-0.428;2022-09-23T08:28:43;17.50;99.90
20744;DHT22;56303;52.160;-0.428;2022-09-23T08:31:10;17.60;99.90
20744;DHT22;56303;52.160;-0.428;2022-09-23T08:33:40;17.70;99.90
20744;DHT22;56303;52.160;-0.428;2022-09-23T08:36:07;17.80;99.90
20744;DHT22;56303;52.160;-0.428;2022-09-23T08:38:34;17.60;99.90
20744;DHT22;56303;52.160;-0.428;2022-09-23T08:46:54;18.00;99.90
20744;DHT22;56303;52.160;-0.428;2022-09-23T08:49:34;18.40;99.90
20744;DHT22;56303;52.160;-0.428;2022-09-23T08:52:08;18.40;99.90
20744;DHT22;56303;52.160;-0.428;2022-09-23T08:54:39;18.20;99.90
20744;DHT22;56303;52.160;-0.428;2022-09-23T08:57:09;18.40;99.90
20744;DHT22;56303;52.160;-0.428;2022-09-23T08:59:44;18.30;99.90
20744;DHT22;56303;52.160;-0.428;2022-09-23T09:02:21;18.20;99.90
20744;DHT22;56303;52.160;-0.428;2022-09-23T09:04:56;18.30;99.90
20744;DHT22;56303;52.160;-0.428;2022-09-23T09:07:28;18.30;99.90
20744;DHT22;56303;52.160;-0.428;2022-09-23T09:12:43;18.40;99.90
20744;DHT22;56303;52.160;-0.428;2022-09-23T09:20:49;18.50;99.90
20744;DHT22;56303;52.160;-0.428;2022-09-23T09:23:22;18.20;99.90
20744;DHT22;56303;52.160;-0.428;2022-09-23T09:25:53;18.60;99.90
20744;DHT22;56303;52.160;-0.428;2022-09-23T09:28:32;17.60;99.90
20744;DHT22;56303;52.160;-0.428;2022-09-23T09:39:35;18.70;99.90
20744;DHT22;56303;52.160;-0.428;2022-09-23T09:42:04;18.70;99.90
20744;DHT22;56303;52.160;-0.428;2022-09-23T09:50:17;18.60;99.90
20744;DHT22;56303;52.160;-0.428;2022-09-23T09:52:47;18.40;99.90
20744;DHT22;56303;52.160;-0.428;2022-09-23T09:55:33;18.50;99.90
20744;DHT22;56303;52.160;-0.428;2022-09-23T09:58:02;18.60;99.90
20744;DHT22;56303;52.160;-0.428;2022-09-23T10:00:41;18.50;99.90
20744;DHT22;56303;52.160;-0.428;2022-09-23T10:13:36;18.60;99.90
20744;DHT22;56303;52.160;-0.428;2022-09-23T10:16:04;18.60;99.90
20744;DHT22;56303;52.160;-0.428;2022-09-23T10:18:57;18.50;99.90
20744;DHT22;56303;52.160;-0.428;2022-09-23T10:21:24;18.80;99.90
20744;DHT22;56303;52.160;-0.428;2022-09-23T10:23:59;18.00;99.90
20744;DHT22;56303;52.160;-0.428;2022-09-23T10:26:32;18.10;99.90
20744;DHT22;56303;52.160;-0.428;2022-09-23T10:29:19;18.30;99.90
20744;DHT22;56303;52.160;-0.428;2022-09-23T10:31:48;18.50;99.90
20744;DHT22;56303;52.160;-0.428;2022-09-23T10:34:25;18.50;99.90
20744;DHT22;56303;52.160;-0.428;2022-09-23T11:00:27;18.30;99.90
20744;DHT22;56303;52.160;-0.428;2022-09-23T11:08:54;18.60;99.90
20744;DHT22;56303;52.160;-0.428;2022-09-23T11:28:40;18.50;99.90
20744;DHT22;56303;52.160;-0.428;2022-09-23T11:36:31;18.70;99.90
20744;DHT22;56303;52.160;-0.428;2022-09-23T11:39:05;18.40;99.90
20744;DHT22;56303;52.160;-0.428;2022-09-23T11:41:36;18.50;99.90
20744;DHT22;56303;52.160;-0.428;2022-09-23T11:49:16;18.50;99.90
20744;DHT22;56303;52.160;-0.428;2022-09-23T11:54:42;18.20;99.90
20744;DHT22;56303;52.160;-0.428;2022-09-23T12:00:30;18.20;99.90
20744;DHT22;56303;52.160;-0.428;2022-09-23T12:03:19;17.10;99.90
20744;DHT22;56303;52.160;-0.428;2022-09-23T12:06:07;18.30;99.90
20744;DHT22;56303;52.160;-0.428;2022-09-23T12:08:37;18.50;99.90
20744;DHT22;56303;52.160;-0.428;2022-09-23T12:24:54;19.00;99.90
20744;DHT22;56303;52.160;-0.428;2022-09-23T12:30:00;18.80;99.90
20744;DHT22;56303;52.160;-0.428;2022-09-23T12:32:28;18.80;99.90
20744;DHT22;56303;52.160;-0.428;2022-09-23T12:34:56;19.70;99.90
20744;DHT22;56303;52.160;-0.428;2022-09-23T12:37:34;19.80;99.90
20744;DHT22;56303;52.160;-0.428;2022-09-23T12:40:21;19.40;99.90
20744;DHT22;56303;52.160;-0.428;2022-09-23T12:42:49;18.80;99.90
20744;DHT22;56303;52.160;-0.428;2022-09-23T12:48:24;18.30;99.90
20744;DHT22;56303;52.160;-0.428;2022-09-23T12:50:56;19.70;99.90
20744;DHT22;56303;52.160;-0.428;2022-09-23T12:59:22;18.40;99.90
20744;DHT22;56303;52.160;-0.428;2022-09-23T13:01:50;18.40;99.90
20744;DHT22;56303;52.160;-0.428;2022-09-23T13:07:30;18.70;99.90
20744;DHT22;56303;52.160;-0.428;2022-09-23T13:10:29;19.30;99.90
20744;DHT22;56303;52.160;-0.428;2022-09-23T13:12:59;20.30;99.90
20744;DHT22;56303;52.160;-0.428;2022-09-23T13:15:30;21.20;99.90
20744;DHT22;56303;52.160;-0.428;2022-09-23T13:21:24;21.60;99.90
20744;DHT22;56303;52.160;-0.428;2022-09-23T13:27:13;22.70;99.90
20744;DHT22;56303;52.160;-0.428;2022-09-23T13:32:13;21.60;99.90
20744;DHT22;56303;52.160;-0.428;2022-09-23T13:34:45;21.40;99.90
20744;DHT22;56303;52.160;-0.428;2022-09-23T13:37:24;23.20;99.90
20744;DHT22;56303;52.160;-0.428;2022-09-23T13:39:51;23.90;99.90
20744;DHT22;56303;52.160;-0.428;2022-09-23T13:42:28;23.20;99.90
20744;DHT22;56303;52.160;-0.428;2022-09-23T13:44:56;22.50;99.90
20744;DHT22;56303;52.160;-0.428;2022-09-23T13:47:27;22.80;99.90
20744;DHT22;56303;52.160;-0.428;2022-09-23T13:49:55;22.80;99.90
20744;DHT22;56303;52.160;-0.428;2022-09-23T13:52:28;22.00;99.90
20744;DHT22;56303;52.160;-0.428;2022-09-23T13:54:55;21.90;99.90
20744;DHT22;56303;52.160;-0.428;2022-09-23T13:57:30;21.90;99.90
20744;DHT22;56303;52.160;-0.428;2022-09-23T14:00:22;21.70;99.90
20744;DHT22;56303;52.160;-0.428;2022-09-23T14:02:48;21.20;99.90
20744;DHT22;56303;52.160;-0.428;2022-09-23T14:05:24;20.80;99.90
20744;DHT22;56303;52.160;-0.428;2022-09-23T14:07:53;21.20;99.90
20744;DHT22;56303;52.160;-0.428;2022-09-23T14:10:23;21.80;99.90
20744;DHT22;56303;52.160;-0.428;2022-09-23T14:12:51;21.70;99.90
20744;DHT22;56303;52.160;-0.428;2022-09-23T14:15:19;20.80;99.90
20744;DHT22;56303;52.160;-0.428;2022-09-23T14:17:49;20.60;99.90
20744;DHT22;56303;52.160;-0.428;2022-09-23T14:20:20;20.60;99.90
20744;DHT22;56303;52.160;-0.428;2022-09-23T14:22:47;20.90;99.90
20744;DHT22;56303;52.160;-0.428;2022-09-23T14:25:16;20.70;99.90
20744;DHT22;56303;52.160;-0.428;2022-09-23T14:27:43;20.60;99.90
20744;DHT22;56303;52.160;-0.428;2022-09-23T14:30:20;20.60;99.90
20744;DHT22;56303;52.160;-0.428;2022-09-23T14:32:52;20.40;99.90
20744;DHT22;56303;52.160;-0.428;2022-09-23T14:35:22;19.90;99.90
20744;DHT22;56303;52.160;-0.428;2022-09-23T14:37:55;19.90;99.90
20744;DHT22;56303;52.160;-0.428;2022-09-23T14:40:53;19.80;99.90
20744;DHT22;56303;52.160;-0.428;2022-09-23T14:44:13;19.80;99.90
20744;DHT22;56303;52.160;-0.428;2022-09-23T14:46:54;19.70;99.90
20744;DHT22;56303;52.160;-0.428;2022-09-23T14:49:22;19.50;99.90
20744;DHT22;56303;52.160;-0.428;2022-09-23T14:51:55;19.30;99.90
20744;DHT22;56303;52.160;-0.428;2022-09-23T14:57:28;19.20;99.90
20744;DHT22;56303;52.160;-0.428;2022-09-23T15:02:34;19.20;99.90
20744;DHT22;56303;52.160;-0.428;2022-09-23T15:05:21;19.10;99.90
20744;DHT22;56303;52.160;-0.428;2022-09-23T15:07:51;19.30;99.90
20744;DHT22;56303;52.160;-0.428;2022-09-23T15:10:31;19.30;99.90
20744;DHT22;56303;52.160;-0.428;2022-09-23T15:13:13;19.40;99.90
20744;DHT22;56303;52.160;-0.428;2022-09-23T15:15:41;19.60;99.90
20744;DHT22;56303;52.160;-0.428;2022-09-23T15:18:22;19.60;99.90
20744;DHT22;56303;52.160;-0.428;2022-09-23T15:20:56;19.40;99.90
20744;DHT22;56303;52.160;-0.428;2022-09-23T15:23:48;19.40;99.90
20744;DHT22;56303;52.160;-0.428;2022-09-23T15:26:44;19.10;99.90
20744;DHT22;56303;52.160;-0.428;2022-09-23T15:29:12;19.30;99.90
20744;DHT22;56303;52.160;-0.428;2022-09-23T15:31:41;19.00;99.90
20744;DHT22;56303;52.160;-0.428;2022-09-23T15:34:10;19.20;99.90
20744;DHT22;56303;52.160;-0.428;2022-09-23T15:36:37;19.30;99.90
20744;DHT22;56303;52.160;-0.428;2022-09-23T15:39:06;19.40;99.90
20744;DHT22;56303;52.160;-0.428;2022-09-23T15:41:35;19.30;99.90
20744;DHT22;56303;52.160;-0.428;2022-09-23T15:44:13;19.70;99.90
20744;DHT22;56303;52.160;-0.428;2022-09-23T15:46:50;20.50;99.90
20744;DHT22;56303;52.160;-0.428;2022-09-23T15:49:36;20.30;99.90
20744;DHT22;56303;52.160;-0.428;2022-09-23T15:52:05;20.40;99.90
20744;DHT22;56303;52.160;-0.428;2022-09-23T15:54:33;20.10;99.90
20744;DHT22;56303;52.160;-0.428;2022-09-23T15:57:00;19.90;99.90
20744;DHT22;56303;52.160;-0.428;2022-09-23T15:59:28;19.80;99.90
20744;DHT22;56303;52.160;-0.428;2022-09-23T16:01:59;19.60;99.90
20744;DHT22;56303;52.160;-0.428;2022-09-23T16:04:27;19.70;99.90
20744;DHT22;56303;52.160;-0.428;2022-09-23T16:06:54;19.70;99.90
20744;DHT22;56303;52.160;-0.428;2022-09-23T16:09:20;19.60;99.90
20744;DHT22;56303;52.160;-0.428;2022-09-23T16:11:47;19.70;99.90
20744;DHT22;56303;52.160;-0.428;2022-09-23T16:14:16;19.70;99.90
20744;DHT22;56303;52.160;-0.428;2022-09-23T16:16:43;20.10;99.90
20744;DHT22;56303;52.160;-0.428;2022-09-23T16:19:14;20.70;99.90
20744;DHT22;56303;52.160;-0.428;2022-09-23T16:21:41;20.70;99.90
20744;DHT22;56303;52.160;-0.428;2022-09-23T16:24:14;21.00;99.90
20744;DHT22;56303;52.160;-0.428;2022-09-23T16:26:42;21.60;99.90
20744;DHT22;56303;52.160;-0.428;2022-09-23T16:29:09;22.10;99.90
20744;DHT22;56303;52.160;-0.428;2022-09-23T16:31:39;21.80;99.90
20744;DHT22;56303;52.160;-0.428;2022-09-23T16:34:06;21.80;99.90
20744;DHT22;56303;52.160;-0.428;2022-09-23T16:36:36;21.10;99.90
20744;DHT22;56303;52.160;-0.428;2022-09-23T16:39:06;21.40;99.90
20744;DHT22;56303;52.160;-0.428;2022-09-23T16:41:36;21.60;99.90
20744;DHT22;56303;52.160;-0.428;2022-09-23T16:44:04;21.80;99.90
20744;DHT22;56303;52.160;-0.428;2022-09-23T16:46:33;21.70;99.90
20744;DHT22;56303;52.160;-0.428;2022-09-23T16:49:00;22.10;99.90
20744;DHT22;56303;52.160;-0.428;2022-09-23T16:51:32;21.90;99.90
20744;DHT22;56303;52.160;-0.428;2022-09-23T16:54:09;21.80;99.90
20744;DHT22;56303;52.160;-0.428;2022-09-23T16:56:38;21.80;99.90
20744;DHT22;56303;52.160;-0.428;2022-09-23T16:59:05;21.40;99.90
20744;DHT22;56303;52.160;-0.428;2022-09-23T17:01:32;21.30;99.90
20744;DHT22;56303;52.160;-0.428;2022-09-23T17:04:18;21.30;99.90
20744;DHT22;56303;52.160;-0.428;2022-09-23T17:06:47;21.30;99.90
20744;DHT22;56303;52.160;-0.428;2022-09-23T17:09:18;21.30;99.90
20744;DHT22;56303;52.160;-0.428;2022-09-23T17:11:52;20.90;99.90
20744;DHT22;56303;52.160;-0.428;2022-09-23T17:14:24;20.50;99.90
20744;DHT22;56303;52.160;-0.428;2022-09-23T17:16:51;20.30;99.90
20744;DHT22;56303;52.160;-0.428;2022-09-23T17:19:18;20.30;99.90
20744;DHT22;56303;52.160;-0.428;2022-09-23T17:21:45;20.40;99.90
20744;DHT22;56303;52.160;-0.428;2022-09-23T17:24:12;20.20;99.90
20744;DHT22;56303;52.160;-0.428;2022-09-23T17:26:39;19.80;99.90
20744;DHT22;56303;52.160;-0.428;2022-09-23T17:29:05;19.40;99.90
20744;DHT22;56303;52.160;-0.428;2022-09-23T17:31:33;19.30;99.90
20744;DHT22;56303;52.160;-0.428;2022-09-23T17:34:00;19.40;99.90
20744;DHT22;56303;52.160;-0.428;2022-09-23T17:36:26;19.20;99.90
20744;DHT22;56303;52.160;-0.428;2022-09-23T17:38:53;19.20;99.90
20744;DHT22;56303;52.160;-0.428;2022-09-23T17:41:21;19.10;99.90
20744;DHT22;56303;52.160;-0.428;2022-09-23T17:43:53;19.00;99.90
20744;DHT22;56303;52.160;-0.428;2022-09-23T17:46:20;18.90;99.90
20744;DHT22;56303;52.160;-0.428;2022-09-23T17:48:48;18.80;99.90
20744;DHT22;56303;52.160;-0.428;2022-09-23T17:51:18;18.90;99.90
20744;DHT22;56303;52.160;-0.428;2022-09-23T17:53:46;18.90;99.90
20744;DHT22;56303;52.160;-0.428;2022-09-23T17:56:22;18.90;99.90
20744;DHT22;56303;52.160;-0.428;2022-09-23T17:58:51;18.80;99.90
20744;DHT22;56303;52.160;-0.428;2022-09-23T18:01:21;18.90;99.90
20744;DHT22;56303;52.160;-0.428;2022-09-23T18:03:56;18.70;99.90
20744;DHT22;56303;52.160;-0.428;2022-09-23T18:06:26;18.60;99.90
20744;DHT22;56303;52.160;-0.428;2022-09-23T18:08:53;18.40;99.90
20744;DHT22;56303;52.160;-0.428;2022-09-23T18:11:24;18.30;99.90
20744;DHT22;56303;52.160;-0.428;2022-09-23T18:13:57;18.20;99.90
20744;DHT22;56303;52.160;-0.428;2022-09-23T18:16:27;16.50;99.90
20744;DHT22;56303;52.160;-0.428;2022-09-23T18:18:56;17.70;99.90
20744;DHT22;56303;52.160;-0.428;2022-09-23T18:21:35;17.60;99.90
20744;DHT22;56303;52.160;-0.428;2022-09-23T18:24:03;17.30;99.90
20744;DHT22;56303;52.160;-0.428;2022-09-23T18:26:50;16.70;99.90
20744;DHT22;56303;52.160;-0.428;2022-09-23T18:29:16;16.70;99.90
20744;DHT22;56303;52.160;-0.428;2022-09-23T18:31:45;16.70;99.90
20744;DHT22;56303;52.160;-0.428;2022-09-23T18:34:16;16.60;99.90
20744;DHT22;56303;52.160;-0.428;2022-09-23T18:36:44;16.60;99.90
20744;DHT22;56303;52.160;-0.428;2022-09-23T18:39:11;16.50;99.90
20744;DHT22;56303;52.160;-0.428;2022-09-23T18:41:38;16.30;99.90
20744;DHT22;56303;52.160;-0.428;2022-09-23T18:44:06;16.00;99.90